Flight Track Log - Related Links

Times and Time Zones

All times are in EDT time to prevent confusion due to time zone crossing. See the SWA920 flight status page for this flight to view local times or setup timezone preferences in your user account.


Time Position Orientation Groundspeed Altitude Reporting Facility
EDT Latitude Longitude Course Direction KTS MPH feet Rate Location/Type
Fri 11:34:56 PM 39.1411 -76.7611 108° East 168 193 5,700  Level Washington Center
Fri 11:35:56 PM 39.1211 -76.6778 107° East 95 109 8,900 3,550 Climbing Washington Center
Fri 11:36:56 PM 39.1303 -76.5628 84° East 177 204 12,800 3,400 Climbing Washington Center
Fri 11:37:56 PM 39.1356 -76.4319 87° East 306 352 15,700 3,000 Climbing Washington Center
Fri 11:38:56 PM 39.1428 -76.2956 86° East 344 396 18,800 3,200 Climbing Washington Center
Fri 11:39:00 PM 39.1559 -76.5792 284° West  Level FlightAware Approximate
Fri 11:39:56 PM 39.1686 -76.1322 78° East 397 457 22,100  Level Washington Center
Fri 11:40:00 PM 39.1566 -76.5597 108° East  Level FlightAware Approximate
Fri 11:40:56 PM 39.2461 -75.9989 53° Northeast 426 490 23,800  Level Washington Center
Fri 11:41:56 PM 39.3342 -75.8600 51° Northeast 460 529 26,200 2,650 Climbing Washington Center
Fri 11:42:56 PM 39.4239 -75.7233 50° Northeast 483 556 29,100 2,350 Climbing Washington Center
Fri 11:43:56 PM 39.5156 -75.5836 50° Northeast 498 573 30,900 2,100 Climbing Washington Center
Fri 11:44:56 PM 39.6072 -75.4408 50° Northeast 503 579 33,300 1,965 Climbing Washington Center
Fri 11:46:47 PM 39.7703 -75.1894 50° Northeast 490 564 36,500 1,465 Climbing New York Center
Fri 11:47:48 PM 39.8481 -75.0539 53° Northeast 496 571 37,500 1,131 Climbing New York Center
Fri 11:48:49 PM 39.9386 -74.9131 50° Northeast 501 577 38,800 1,017 Climbing New York Center
Fri 11:49:46 PM 40.0331 -74.7722 49° Northeast 506 582 39,500 718 Climbing New York Center
Fri 11:50:46 PM 40.1344 -74.6097 51° Northeast 516 594 40,200 744 Climbing New York Center
Fri 11:51:47 PM 40.2222 -74.4706 50° Northeast 528 608 41,000  Climbing New York Center
Fri 11:52:49 PM 40.3167 -74.3178 51° Northeast 528 608 40,200 -1,650 Descending New York Center
Fri 11:53:47 PM 40.4106 -74.1728 50° Northeast 528 608 37,700 -2,723 Descending New York Center
Fri 11:54:48 PM 40.5022 -74.0244 51° Northeast 523 602 34,800 -3,076 Descending New York Center
Fri 11:55:46 PM 40.5917 -73.8756 52° Northeast 523 602 31,600 -1,174 Descending New York Center
Fri 11:57:00 PM 40.6586 -73.7040 49° Northeast  Level FlightAware Approximate
Sat 12:04:00 AM 41.2202 -72.8736 64° Northeast  Level FlightAware Approximate
Sat 12:04:00 AM 41.2914 -72.7219 63° Northeast 476 548 24,000  Level Boston Center
Sat 12:05:00 AM 41.2732 -72.7285 64° Northeast  Level FlightAware Approximate
Sat 12:05:12 AM 41.3625 -72.5342 63° Northeast 476 548 24,000  Level Boston Center
Sat 12:06:00 AM 41.3260 -72.5831 64° Northeast  Level FlightAware Approximate
Sat 12:06:12 AM 41.4167 -72.3764 65° Northeast 470 541 24,000  Level Boston Center
Sat 12:07:00 AM 41.3851 -72.4451 66° East  Level FlightAware Approximate
Sat 12:07:12 AM 41.4728 -72.2239 64° Northeast 460 529 24,000  Level Boston Center
Sat 12:08:00 AM 41.4343 -72.2973 66° East  Level FlightAware Approximate
Sat 12:08:12 AM 41.5328 -72.0658 63° Northeast 455 524 23,000  Level Boston Center
Sat 12:09:00 AM 41.4857 -72.1507 63° Northeast  Level FlightAware Approximate
Sat 12:09:12 AM 41.5842 -71.9072 67° East 461 531 22,000  Level Boston Center
Sat 12:11:12 AM 41.6661 -71.6314 68° East 450 518 19,200 -1,967 Descending Boston Center
Sat 12:12:12 AM 41.7208 -71.4444 69° East 450 518 16,100 -2,600 Descending Boston Center
Sat 12:13:12 AM 41.7778 -71.3069 61° Northeast 434 499 14,000 -2,300 Descending Boston Center
Sat 12:14:12 AM 41.8347 -71.1694 61° Northeast 419 482 11,500 -1,500 Descending Boston Center
Sat 12:15:12 AM 41.8875 -71.0458 60° Northeast 408 470 11,000 -250 Descending Boston Center
Sat 12:16:12 AM 41.9361 -70.9358 59° Northeast 380 437 11,000 -305 Level Boston Center
Sat 12:17:10 AM 42.0000 -70.8000 58° Northeast 373 429 10,400 -814 Descending KA90
Sat 12:18:10 AM 42.0500 -70.7000 56° Northeast 344 396 9,400 -1,200 Descending KA90
Sat 12:19:10 AM 42.1167 -70.6167 43° Northeast 344 396 8,000 -1,350 Descending KA90
Sat 12:20:10 AM 42.2000 -70.6167 360° North 314 361 6,700 -1,421 Descending KA90
Sat 12:21:04 AM 42.2833 -70.6333 352° North 318 366 5,300 -1,409 Descending KA90
Sat 12:22:05 AM 42.3667 -70.6333 360° North 318 366 4,000 -650 Descending KA90
Sat 12:23:04 AM 42.4333 -70.6833 331° Northwest 259 298 4,000  Level KA90
Sat 12:23:58 AM 42.5000 -70.7333 331° Northwest 256 295 4,000 -522 Level KA90
Sat 12:24:59 AM 42.5500 -70.7833 324° Northwest 240 276 3,000 -500 Descending KA90
Sat 12:25:58 AM 42.5500 -70.8500 270° West 194 223 3,000  Level KA90
Sat 12:26:58 AM 42.5333 -70.9167 251° West 179 206 3,000 -350 Level KA90
Sat 12:27:58 AM 42.4833 -70.9500 206° Southwest 188 216 2,300 -700 Descending KA90
Sat 12:28:58 AM 42.4500 -70.9667 200° South 131 151 1,600 -600 Descending KA90
Sat 12:29:58 AM 42.4167 -70.9833 200° South 111 128 1,100 -574 Descending KA90
Sat 12:30:53 AM 42.4000 -70.9833 180° South 122 140 500 -655 Descending KA90

Login

Don't have an account? Register now (free) for customized features, flight alerts, and more!